sensor_id;sensor_type;location;lat;lon;timestamp;P1;durP1;ratioP1;P2;durP2;ratioP2
8458;SDS011;4266;48.816;9.154;2023-02-28T00:01:33;6.40;;;5.83;;
8458;SDS011;4266;48.816;9.154;2023-02-28T00:03:59;5.83;;;5.40;;
8458;SDS011;4266;48.816;9.154;2023-02-28T00:06:25;6.03;;;5.50;;
8458;SDS011;4266;48.816;9.154;2023-02-28T00:08:50;6.10;;;5.50;;
8458;SDS011;4266;48.816;9.154;2023-02-28T00:11:16;6.07;;;5.57;;
8458;SDS011;4266;48.816;9.154;2023-02-28T00:13:42;6.07;;;5.67;;
8458;SDS011;4266;48.816;9.154;2023-02-28T00:16:09;6.17;;;5.60;;
8458;SDS011;4266;48.816;9.154;2023-02-28T00:18:33;6.80;;;6.23;;
8458;SDS011;4266;48.816;9.154;2023-02-28T00:20:58;5.87;;;5.23;;
8458;SDS011;4266;48.816;9.154;2023-02-28T00:23:24;5.57;;;5.17;;
8458;SDS011;4266;48.816;9.154;2023-02-28T00:25:50;6.03;;;5.13;;
8458;SDS011;4266;48.816;9.154;2023-02-28T00:28:16;6.10;;;5.70;;
8458;SDS011;4266;48.816;9.154;2023-02-28T00:30:42;6.20;;;5.70;;
8458;SDS011;4266;48.816;9.154;2023-02-28T00:33:07;5.90;;;5.37;;
8458;SDS011;4266;48.816;9.154;2023-02-28T00:35:33;6.23;;;5.63;;
8458;SDS011;4266;48.816;9.154;2023-02-28T00:37:58;6.20;;;5.70;;
8458;SDS011;4266;48.816;9.154;2023-02-28T00:40:25;6.40;;;5.77;;
8458;SDS011;4266;48.816;9.154;2023-02-28T00:42:50;6.67;;;6.07;;
8458;SDS011;4266;48.816;9.154;2023-02-28T00:45:16;6.50;;;6.00;;
8458;SDS011;4266;48.816;9.154;2023-02-28T00:47:42;6.27;;;5.57;;
8458;SDS011;4266;48.816;9.154;2023-02-28T00:50:08;6.30;;;5.80;;
8458;SDS011;4266;48.816;9.154;2023-02-28T00:52:34;6.27;;;5.77;;
8458;SDS011;4266;48.816;9.154;2023-02-28T00:55:00;8.17;;;6.40;;
8458;SDS011;4266;48.816;9.154;2023-02-28T00:57:26;7.53;;;5.63;;
8458;SDS011;4266;48.816;9.154;2023-02-28T00:59:52;6.17;;;5.67;;
8458;SDS011;4266;48.816;9.154;2023-02-28T01:02:18;6.20;;;5.57;;
8458;SDS011;4266;48.816;9.154;2023-02-28T01:04:43;6.57;;;6.03;;
8458;SDS011;4266;48.816;9.154;2023-02-28T01:07:09;6.30;;;5.80;;
8458;SDS011;4266;48.816;9.154;2023-02-28T01:09:35;6.53;;;5.93;;
8458;SDS011;4266;48.816;9.154;2023-02-28T01:12:00;6.77;;;6.10;;
8458;SDS011;4266;48.816;9.154;2023-02-28T01:14:26;6.63;;;6.00;;
8458;SDS011;4266;48.816;9.154;2023-02-28T01:16:52;7.37;;;6.73;;
8458;SDS011;4266;48.816;9.154;2023-02-28T01:19:17;6.77;;;6.17;;
8458;SDS011;4266;48.816;9.154;2023-02-28T01:21:43;10.83;;;6.77;;
8458;SDS011;4266;48.816;9.154;2023-02-28T01:24:09;7.97;;;7.33;;
8458;SDS011;4266;48.816;9.154;2023-02-28T01:26:34;6.83;;;6.23;;
8458;SDS011;4266;48.816;9.154;2023-02-28T01:29:00;7.83;;;6.47;;
8458;SDS011;4266;48.816;9.154;2023-02-28T01:31:26;7.57;;;6.47;;
8458;SDS011;4266;48.816;9.154;2023-02-28T01:33:51;7.10;;;6.50;;
8458;SDS011;4266;48.816;9.154;2023-02-28T01:36:18;6.70;;;6.10;;
8458;SDS011;4266;48.816;9.154;2023-02-28T01:38:44;8.23;;;7.53;;
8458;SDS011;4266;48.816;9.154;2023-02-28T01:41:10;7.37;;;6.67;;
8458;SDS011;4266;48.816;9.154;2023-02-28T01:46:22;7.87;;;7.10;;
8458;SDS011;4266;48.816;9.154;2023-02-28T01:48:50;7.33;;;6.83;;
8458;SDS011;4266;48.816;9.154;2023-02-28T01:51:18;7.70;;;7.10;;
8458;SDS011;4266;48.816;9.154;2023-02-28T01:53:45;7.87;;;7.27;;
8458;SDS011;4266;48.816;9.154;2023-02-28T01:56:09;8.00;;;7.33;;
8458;SDS011;4266;48.816;9.154;2023-02-28T01:58:35;8.37;;;6.40;;
8458;SDS011;4266;48.816;9.154;2023-02-28T02:01:01;7.50;;;6.87;;
8458;SDS011;4266;48.816;9.154;2023-02-28T02:03:27;7.87;;;7.07;;
8458;SDS011;4266;48.816;9.154;2023-02-28T02:05:53;7.57;;;6.87;;
8458;SDS011;4266;48.816;9.154;2023-02-28T02:08:19;7.37;;;6.67;;
8458;SDS011;4266;48.816;9.154;2023-02-28T02:10:46;7.73;;;7.07;;
8458;SDS011;4266;48.816;9.154;2023-02-28T02:15:54;8.17;;;7.40;;
8458;SDS011;4266;48.816;9.154;2023-02-28T02:18:26;7.27;;;6.67;;
8458;SDS011;4266;48.816;9.154;2023-02-28T02:21:04;7.43;;;6.70;;
8458;SDS011;4266;48.816;9.154;2023-02-28T02:23:33;7.90;;;7.10;;
8458;SDS011;4266;48.816;9.154;2023-02-28T02:26:37;8.37;;;7.57;;
8458;SDS011;4266;48.816;9.154;2023-02-28T02:30:08;7.20;;;6.60;;
8458;SDS011;4266;48.816;9.154;2023-02-28T02:32:02;7.17;;;6.60;;
8458;SDS011;4266;48.816;9.154;2023-02-28T02:37:12;6.97;;;6.37;;
8458;SDS011;4266;48.816;9.154;2023-02-28T02:39:53;8.57;;;7.73;;
8458;SDS011;4266;48.816;9.154;2023-02-28T02:42:20;7.27;;;6.40;;
8458;SDS011;4266;48.816;9.154;2023-02-28T02:44:45;7.83;;;7.13;;
8458;SDS011;4266;48.816;9.154;2023-02-28T02:47:10;8.00;;;7.30;;
8458;SDS011;4266;48.816;9.154;2023-02-28T02:49:35;7.47;;;6.77;;
8458;SDS011;4266;48.816;9.154;2023-02-28T02:52:02;6.97;;;6.27;;
8458;SDS011;4266;48.816;9.154;2023-02-28T02:54:27;12.03;;;7.80;;
8458;SDS011;4266;48.816;9.154;2023-02-28T02:56:52;7.30;;;6.70;;
8458;SDS011;4266;48.816;9.154;2023-02-28T02:59:18;8.20;;;7.27;;
8458;SDS011;4266;48.816;9.154;2023-02-28T03:01:44;7.87;;;7.17;;
8458;SDS011;4266;48.816;9.154;2023-02-28T03:04:11;7.00;;;6.33;;
8458;SDS011;4266;48.816;9.154;2023-02-28T03:06:36;8.00;;;7.20;;
8458;SDS011;4266;48.816;9.154;2023-02-28T03:09:02;8.50;;;6.57;;
8458;SDS011;4266;48.816;9.154;2023-02-28T03:11:27;7.23;;;6.63;;
8458;SDS011;4266;48.816;9.154;2023-02-28T03:14:04;7.43;;;6.73;;
8458;SDS011;4266;48.816;9.154;2023-02-28T03:16:33;9.23;;;7.93;;
8458;SDS011;4266;48.816;9.154;2023-02-28T03:19:18;8.20;;;7.40;;
8458;SDS011;4266;48.816;9.154;2023-02-28T03:21:55;8.73;;;8.03;;
8458;SDS011;4266;48.816;9.154;2023-02-28T03:24:22;8.53;;;7.73;;
8458;SDS011;4266;48.816;9.154;2023-02-28T03:26:50;8.30;;;7.50;;
8458;SDS011;4266;48.816;9.154;2023-02-28T03:29:18;8.30;;;7.50;;
8458;SDS011;4266;48.816;9.154;2023-02-28T03:31:44;7.67;;;6.97;;
8458;SDS011;4266;48.816;9.154;2023-02-28T03:34:15;10.87;;;7.87;;
8458;SDS011;4266;48.816;9.154;2023-02-28T03:36:43;8.40;;;7.60;;
8458;SDS011;4266;48.816;9.154;2023-02-28T03:39:09;10.17;;;7.63;;
8458;SDS011;4266;48.816;9.154;2023-02-28T03:41:36;8.13;;;7.43;;
8458;SDS011;4266;48.816;9.154;2023-02-28T03:44:03;9.17;;;8.30;;
8458;SDS011;4266;48.816;9.154;2023-02-28T03:46:27;9.07;;;8.27;;
8458;SDS011;4266;48.816;9.154;2023-02-28T03:48:54;9.17;;;8.37;;
8458;SDS011;4266;48.816;9.154;2023-02-28T03:51:19;9.20;;;8.37;;
8458;SDS011;4266;48.816;9.154;2023-02-28T03:53:47;8.67;;;7.73;;
8458;SDS011;4266;48.816;9.154;2023-02-28T03:56:19;8.90;;;8.07;;
8458;SDS011;4266;48.816;9.154;2023-02-28T03:58:49;10.33;;;7.73;;
8458;SDS011;4266;48.816;9.154;2023-02-28T04:01:33;8.77;;;7.93;;
8458;SDS011;4266;48.816;9.154;2023-02-28T04:03:59;9.37;;;8.47;;
8458;SDS011;4266;48.816;9.154;2023-02-28T04:06:25;9.40;;;8.60;;
8458;SDS011;4266;48.816;9.154;2023-02-28T04:08:51;9.20;;;8.37;;
8458;SDS011;4266;48.816;9.154;2023-02-28T04:11:22;9.77;;;7.60;;
8458;SDS011;4266;48.816;9.154;2023-02-28T04:13:48;10.43;;;8.83;;
8458;SDS011;4266;48.816;9.154;2023-02-28T04:16:14;8.90;;;8.20;;
8458;SDS011;4266;48.816;9.154;2023-02-28T04:18:40;9.30;;;8.13;;
8458;SDS011;4266;48.816;9.154;2023-02-28T04:21:06;8.00;;;7.20;;
8458;SDS011;4266;48.816;9.154;2023-02-28T04:23:32;8.90;;;8.13;;
8458;SDS011;4266;48.816;9.154;2023-02-28T04:25:58;9.43;;;8.63;;
8458;SDS011;4266;48.816;9.154;2023-02-28T04:28:24;9.43;;;8.63;;
8458;SDS011;4266;48.816;9.154;2023-02-28T04:30:56;9.17;;;8.27;;
8458;SDS011;4266;48.816;9.154;2023-02-28T04:33:22;9.53;;;8.73;;
8458;SDS011;4266;48.816;9.154;2023-02-28T04:35:57;9.60;;;8.60;;
8458;SDS011;4266;48.816;9.154;2023-02-28T04:38:15;10.20;;;7.87;;
8458;SDS011;4266;48.816;9.154;2023-02-28T04:40:40;9.00;;;8.13;;
8458;SDS011;4266;48.816;9.154;2023-02-28T04:43:06;9.13;;;8.23;;
8458;SDS011;4266;48.816;9.154;2023-02-28T04:45:31;9.87;;;8.73;;
8458;SDS011;4266;48.816;9.154;2023-02-28T04:47:58;9.73;;;8.83;;
8458;SDS011;4266;48.816;9.154;2023-02-28T04:50:23;9.73;;;8.83;;
8458;SDS011;4266;48.816;9.154;2023-02-28T04:52:50;10.30;;;9.40;;
8458;SDS011;4266;48.816;9.154;2023-02-28T04:55:16;9.07;;;7.83;;
8458;SDS011;4266;48.816;9.154;2023-02-28T04:57:41;8.90;;;7.83;;
8458;SDS011;4266;48.816;9.154;2023-02-28T05:00:07;9.80;;;8.33;;
8458;SDS011;4266;48.816;9.154;2023-02-28T05:02:34;8.67;;;7.87;;
8458;SDS011;4266;48.816;9.154;2023-02-28T05:05:00;9.87;;;8.87;;
8458;SDS011;4266;48.816;9.154;2023-02-28T05:07:26;8.70;;;7.80;;
8458;SDS011;4266;48.816;9.154;2023-02-28T05:09:52;9.30;;;8.30;;
8458;SDS011;4266;48.816;9.154;2023-02-28T05:12:17;9.50;;;8.70;;
8458;SDS011;4266;48.816;9.154;2023-02-28T05:14:43;8.40;;;7.70;;
8458;SDS011;4266;48.816;9.154;2023-02-28T05:17:08;9.87;;;8.87;;
8458;SDS011;4266;48.816;9.154;2023-02-28T05:19:34;10.83;;;8.50;;
8458;SDS011;4266;48.816;9.154;2023-02-28T05:22:00;14.40;;;9.13;;
8458;SDS011;4266;48.816;9.154;2023-02-28T05:24:27;9.97;;;8.90;;
8458;SDS011;4266;48.816;9.154;2023-02-28T05:26:53;10.30;;;9.40;;
8458;SDS011;4266;48.816;9.154;2023-02-28T05:29:19;9.93;;;8.93;;
8458;SDS011;4266;48.816;9.154;2023-02-28T05:31:45;9.47;;;8.70;;
8458;SDS011;4266;48.816;9.154;2023-02-28T05:34:10;10.20;;;8.83;;
8458;SDS011;4266;48.816;9.154;2023-02-28T05:36:36;9.17;;;8.17;;
8458;SDS011;4266;48.816;9.154;2023-02-28T05:39:02;10.90;;;9.43;;
8458;SDS011;4266;48.816;9.154;2023-02-28T05:41:28;9.47;;;8.57;;
8458;SDS011;4266;48.816;9.154;2023-02-28T05:43:53;9.47;;;8.67;;
8458;SDS011;4266;48.816;9.154;2023-02-28T05:46:19;9.97;;;8.93;;
8458;SDS011;4266;48.816;9.154;2023-02-28T05:48:46;9.67;;;8.87;;
8458;SDS011;4266;48.816;9.154;2023-02-28T05:51:18;10.43;;;8.33;;
8458;SDS011;4266;48.816;9.154;2023-02-28T05:53:45;10.17;;;9.17;;
8458;SDS011;4266;48.816;9.154;2023-02-28T05:56:10;9.97;;;9.17;;
8458;SDS011;4266;48.816;9.154;2023-02-28T05:58:36;12.67;;;9.40;;
8458;SDS011;4266;48.816;9.154;2023-02-28T06:03:41;10.10;;;9.20;;
8458;SDS011;4266;48.816;9.154;2023-02-28T06:06:06;9.73;;;8.93;;
8458;SDS011;4266;48.816;9.154;2023-02-28T06:08:33;9.90;;;8.90;;
8458;SDS011;4266;48.816;9.154;2023-02-28T06:11:02;10.07;;;9.23;;
8458;SDS011;4266;48.816;9.154;2023-02-28T06:13:24;9.37;;;8.37;;
8458;SDS011;4266;48.816;9.154;2023-02-28T06:15:51;10.03;;;8.97;;
8458;SDS011;4266;48.816;9.154;2023-02-28T06:18:17;10.93;;;9.53;;
8458;SDS011;4266;48.816;9.154;2023-02-28T06:20:42;9.47;;;8.67;;
8458;SDS011;4266;48.816;9.154;2023-02-28T06:23:08;11.77;;;9.13;;
8458;SDS011;4266;48.816;9.154;2023-02-28T06:25:34;12.07;;;9.23;;
8458;SDS011;4266;48.816;9.154;2023-02-28T06:28:00;10.37;;;9.37;;
8458;SDS011;4266;48.816;9.154;2023-02-28T06:30:26;10.13;;;9.23;;
8458;SDS011;4266;48.816;9.154;2023-02-28T06:32:52;10.07;;;9.07;;
8458;SDS011;4266;48.816;9.154;2023-02-28T06:35:17;10.77;;;9.17;;
8458;SDS011;4266;48.816;9.154;2023-02-28T06:37:43;10.13;;;9.17;;
8458;SDS011;4266;48.816;9.154;2023-02-28T06:40:09;10.50;;;9.40;;
8458;SDS011;4266;48.816;9.154;2023-02-28T06:42:35;10.63;;;9.63;;
8458;SDS011;4266;48.816;9.154;2023-02-28T06:45:01;9.73;;;8.70;;
8458;SDS011;4266;48.816;9.154;2023-02-28T06:47:27;10.23;;;9.33;;
8458;SDS011;4266;48.816;9.154;2023-02-28T06:49:52;11.07;;;10.03;;
8458;SDS011;4266;48.816;9.154;2023-02-28T06:52:18;11.07;;;9.13;;
8458;SDS011;4266;48.816;9.154;2023-02-28T06:54:44;10.77;;;9.67;;
8458;SDS011;4266;48.816;9.154;2023-02-28T06:57:10;9.77;;;8.97;;
8458;SDS011;4266;48.816;9.154;2023-02-28T06:59:36;10.97;;;8.80;;
8458;SDS011;4266;48.816;9.154;2023-02-28T07:02:01;12.53;;;9.70;;
8458;SDS011;4266;48.816;9.154;2023-02-28T07:04:27;10.80;;;8.83;;
8458;SDS011;4266;48.816;9.154;2023-02-28T07:06:53;10.40;;;9.37;;
8458;SDS011;4266;48.816;9.154;2023-02-28T07:09:18;11.60;;;9.40;;
8458;SDS011;4266;48.816;9.154;2023-02-28T07:11:44;10.33;;;9.33;;
8458;SDS011;4266;48.816;9.154;2023-02-28T07:14:10;10.00;;;9.10;;
8458;SDS011;4266;48.816;9.154;2023-02-28T07:16:35;10.00;;;9.00;;
8458;SDS011;4266;48.816;9.154;2023-02-28T07:19:01;11.03;;;9.70;;
8458;SDS011;4266;48.816;9.154;2023-02-28T07:21:27;10.77;;;9.67;;
8458;SDS011;4266;48.816;9.154;2023-02-28T07:23:52;11.37;;;10.17;;
8458;SDS011;4266;48.816;9.154;2023-02-28T07:26:19;10.00;;;9.10;;
8458;SDS011;4266;48.816;9.154;2023-02-28T07:28:45;10.80;;;9.10;;
8458;SDS011;4266;48.816;9.154;2023-02-28T07:31:10;10.77;;;9.10;;
8458;SDS011;4266;48.816;9.154;2023-02-28T07:33:35;10.43;;;9.47;;
8458;SDS011;4266;48.816;9.154;2023-02-28T07:36:02;11.90;;;9.77;;
8458;SDS011;4266;48.816;9.154;2023-02-28T07:38:26;11.10;;;9.93;;
8458;SDS011;4266;48.816;9.154;2023-02-28T07:40:52;10.63;;;9.53;;
8458;SDS011;4266;48.816;9.154;2023-02-28T07:43:18;15.07;;;10.27;;
8458;SDS011;4266;48.816;9.154;2023-02-28T07:45:44;10.20;;;9.17;;
8458;SDS011;4266;48.816;9.154;2023-02-28T07:48:10;13.53;;;9.87;;
8458;SDS011;4266;48.816;9.154;2023-02-28T07:50:36;9.63;;;8.67;;
8458;SDS011;4266;48.816;9.154;2023-02-28T07:53:01;14.50;;;9.77;;
8458;SDS011;4266;48.816;9.154;2023-02-28T07:55:28;10.13;;;9.13;;
8458;SDS011;4266;48.816;9.154;2023-02-28T07:57:53;10.90;;;9.80;;
8458;SDS011;4266;48.816;9.154;2023-02-28T08:00:20;10.27;;;9.27;;
8458;SDS011;4266;48.816;9.154;2023-02-28T08:02:46;14.50;;;9.83;;
8458;SDS011;4266;48.816;9.154;2023-02-28T08:05:12;10.67;;;9.57;;
8458;SDS011;4266;48.816;9.154;2023-02-28T08:07:38;10.97;;;9.87;;
8458;SDS011;4266;48.816;9.154;2023-02-28T08:10:04;11.60;;;10.37;;
8458;SDS011;4266;48.816;9.154;2023-02-28T08:12:30;11.67;;;10.23;;
8458;SDS011;4266;48.816;9.154;2023-02-28T08:14:56;12.00;;;10.90;;
8458;SDS011;4266;48.816;9.154;2023-02-28T08:17:21;10.47;;;9.40;;
8458;SDS011;4266;48.816;9.154;2023-02-28T08:19:48;11.27;;;10.03;;
8458;SDS011;4266;48.816;9.154;2023-02-28T08:22:14;12.00;;;10.60;;
8458;SDS011;4266;48.816;9.154;2023-02-28T08:24:40;11.30;;;10.20;;
8458;SDS011;4266;48.816;9.154;2023-02-28T08:27:05;12.30;;;10.97;;
8458;SDS011;4266;48.816;9.154;2023-02-28T08:29:30;12.03;;;10.80;;
8458;SDS011;4266;48.816;9.154;2023-02-28T08:31:56;11.67;;;10.47;;
8458;SDS011;4266;48.816;9.154;2023-02-28T08:34:22;12.17;;;10.17;;
8458;SDS011;4266;48.816;9.154;2023-02-28T08:36:47;11.53;;;10.43;;
8458;SDS011;4266;48.816;9.154;2023-02-28T08:39:13;10.87;;;9.77;;
8458;SDS011;4266;48.816;9.154;2023-02-28T08:41:39;12.00;;;10.70;;
8458;SDS011;4266;48.816;9.154;2023-02-28T08:44:04;16.60;;;11.37;;
8458;SDS011;4266;48.816;9.154;2023-02-28T08:46:30;11.67;;;10.50;;
8458;SDS011;4266;48.816;9.154;2023-02-28T08:48:56;12.87;;;10.27;;
8458;SDS011;4266;48.816;9.154;2023-02-28T08:51:21;11.27;;;10.20;;
8458;SDS011;4266;48.816;9.154;2023-02-28T08:53:47;11.83;;;10.57;;
8458;SDS011;4266;48.816;9.154;2023-02-28T08:56:13;13.57;;;10.33;;
8458;SDS011;4266;48.816;9.154;2023-02-28T08:58:38;13.07;;;11.80;;
8458;SDS011;4266;48.816;9.154;2023-02-28T09:01:11;14.57;;;10.87;;
8458;SDS011;4266;48.816;9.154;2023-02-28T09:03:36;12.57;;;10.83;;
8458;SDS011;4266;48.816;9.154;2023-02-28T09:06:02;14.73;;;10.97;;
8458;SDS011;4266;48.816;9.154;2023-02-28T09:08:29;12.33;;;11.07;;
8458;SDS011;4266;48.816;9.154;2023-02-28T09:10:54;13.33;;;11.47;;
8458;SDS011;4266;48.816;9.154;2023-02-28T09:13:20;15.73;;;11.77;;
8458;SDS011;4266;48.816;9.154;2023-02-28T09:15:46;11.60;;;10.40;;
8458;SDS011;4266;48.816;9.154;2023-02-28T09:18:11;12.33;;;11.13;;
8458;SDS011;4266;48.816;9.154;2023-02-28T09:20:38;15.00;;;11.73;;
8458;SDS011;4266;48.816;9.154;2023-02-28T09:23:02;14.67;;;11.27;;
8458;SDS011;4266;48.816;9.154;2023-02-28T09:25:28;12.77;;;11.57;;
8458;SDS011;4266;48.816;9.154;2023-02-28T09:27:54;12.03;;;10.60;;
8458;SDS011;4266;48.816;9.154;2023-02-28T09:30:20;12.27;;;10.23;;
8458;SDS011;4266;48.816;9.154;2023-02-28T09:32:46;13.40;;;11.70;;
8458;SDS011;4266;48.816;9.154;2023-02-28T09:35:11;12.77;;;10.80;;
8458;SDS011;4266;48.816;9.154;2023-02-28T09:37:37;14.37;;;10.97;;
8458;SDS011;4266;48.816;9.154;2023-02-28T09:40:03;13.40;;;12.10;;
8458;SDS011;4266;48.816;9.154;2023-02-28T09:42:31;13.97;;;11.03;;
8458;SDS011;4266;48.816;9.154;2023-02-28T09:44:57;15.40;;;11.37;;
8458;SDS011;4266;48.816;9.154;2023-02-28T09:47:41;12.77;;;11.47;;
8458;SDS011;4266;48.816;9.154;2023-02-28T09:50:17;14.73;;;11.37;;
8458;SDS011;4266;48.816;9.154;2023-02-28T09:52:43;13.80;;;10.90;;
8458;SDS011;4266;48.816;9.154;2023-02-28T09:55:19;11.63;;;10.37;;
8458;SDS011;4266;48.816;9.154;2023-02-28T09:57:43;12.30;;;11.10;;
8458;SDS011;4266;48.816;9.154;2023-02-28T10:00:13;12.37;;;11.00;;
8458;SDS011;4266;48.816;9.154;2023-02-28T10:02:58;15.50;;;11.40;;
8458;SDS011;4266;48.816;9.154;2023-02-28T10:05:32;12.83;;;11.50;;
8458;SDS011;4266;48.816;9.154;2023-02-28T10:08:03;13.43;;;11.97;;
8458;SDS011;4266;48.816;9.154;2023-02-28T10:10:45;13.07;;;11.67;;
8458;SDS011;4266;48.816;9.154;2023-02-28T10:13:13;11.87;;;10.30;;
8458;SDS011;4266;48.816;9.154;2023-02-28T10:15:43;13.57;;;12.17;;
8458;SDS011;4266;48.816;9.154;2023-02-28T10:18:11;12.50;;;11.23;;
8458;SDS011;4266;48.816;9.154;2023-02-28T10:20:37;12.67;;;10.93;;
8458;SDS011;4266;48.816;9.154;2023-02-28T10:23:04;13.73;;;11.93;;
8458;SDS011;4266;48.816;9.154;2023-02-28T10:25:28;14.27;;;12.13;;
8458;SDS011;4266;48.816;9.154;2023-02-28T10:27:54;14.17;;;11.17;;
8458;SDS011;4266;48.816;9.154;2023-02-28T10:30:19;16.00;;;12.03;;
8458;SDS011;4266;48.816;9.154;2023-02-28T10:32:47;12.37;;;11.17;;
8458;SDS011;4266;48.816;9.154;2023-02-28T10:35:18;12.83;;;11.53;;
8458;SDS011;4266;48.816;9.154;2023-02-28T10:37:46;11.57;;;10.57;;
8458;SDS011;4266;48.816;9.154;2023-02-28T10:40:29;14.17;;;11.63;;
8458;SDS011;4266;48.816;9.154;2023-02-28T10:42:55;15.77;;;12.33;;
8458;SDS011;4266;48.816;9.154;2023-02-28T10:45:26;12.43;;;11.13;;
8458;SDS011;4266;48.816;9.154;2023-02-28T10:47:53;13.47;;;12.07;;
8458;SDS011;4266;48.816;9.154;2023-02-28T10:52:54;13.50;;;11.53;;
8458;SDS011;4266;48.816;9.154;2023-02-28T10:55:22;13.80;;;11.07;;
8458;SDS011;4266;48.816;9.154;2023-02-28T10:57:47;13.77;;;11.53;;
8458;SDS011;4266;48.816;9.154;2023-02-28T11:00:14;12.93;;;11.33;;
8458;SDS011;4266;48.816;9.154;2023-02-28T11:02:40;11.20;;;10.20;;
8458;SDS011;4266;48.816;9.154;2023-02-28T11:05:37;13.10;;;11.03;;
8458;SDS011;4266;48.816;9.154;2023-02-28T11:07:53;12.20;;;11.03;;
8458;SDS011;4266;48.816;9.154;2023-02-28T11:10:19;12.93;;;11.63;;
8458;SDS011;4266;48.816;9.154;2023-02-28T11:12:45;11.83;;;10.63;;
8458;SDS011;4266;48.816;9.154;2023-02-28T11:15:28;12.67;;;10.83;;
8458;SDS011;4266;48.816;9.154;2023-02-28T11:17:56;12.60;;;11.40;;
8458;SDS011;4266;48.816;9.154;2023-02-28T11:20:25;11.87;;;10.77;;
8458;SDS011;4266;48.816;9.154;2023-02-28T11:22:50;11.77;;;10.50;;
8458;SDS011;4266;48.816;9.154;2023-02-28T11:25:19;12.40;;;11.30;;
8458;SDS011;4266;48.816;9.154;2023-02-28T11:27:44;12.00;;;10.90;;
8458;SDS011;4266;48.816;9.154;2023-02-28T11:32:50;11.83;;;10.83;;
8458;SDS011;4266;48.816;9.154;2023-02-28T11:35:17;11.75;;;10.75;;
8458;SDS011;4266;48.816;9.154;2023-02-28T11:37:42;13.27;;;10.98;;
8458;SDS011;4266;48.816;9.154;2023-02-28T11:40:16;11.00;;;10.10;;
8458;SDS011;4266;48.816;9.154;2023-02-28T11:42:47;11.15;;;10.15;;
8458;SDS011;4266;48.816;9.154;2023-02-28T11:45:28;11.57;;;10.43;;
8458;SDS011;4266;48.816;9.154;2023-02-28T11:48:14;10.77;;;9.98;;
8458;SDS011;4266;48.816;9.154;2023-02-28T11:50:41;11.30;;;10.40;;
8458;SDS011;4266;48.816;9.154;2023-02-28T11:53:05;12.00;;;10.90;;
8458;SDS011;4266;48.816;9.154;2023-02-28T11:55:33;11.32;;;10.32;;
8458;SDS011;4266;48.816;9.154;2023-02-28T11:58:13;11.52;;;10.43;;
8458;SDS011;4266;48.816;9.154;2023-02-28T12:00:40;11.63;;;10.60;;
8458;SDS011;4266;48.816;9.154;2023-02-28T12:03:26;11.40;;;10.50;;
8458;SDS011;4266;48.816;9.154;2023-02-28T12:05:52;11.77;;;10.88;;
8458;SDS011;4266;48.816;9.154;2023-02-28T12:08:29;11.48;;;10.32;;
8458;SDS011;4266;48.816;9.154;2023-02-28T12:11:06;12.30;;;11.23;;
8458;SDS011;4266;48.816;9.154;2023-02-28T12:13:38;13.18;;;10.40;;
8458;SDS011;4266;48.816;9.154;2023-02-28T12:21:32;11.70;;;10.70;;
8458;SDS011;4266;48.816;9.154;2023-02-28T12:24:11;12.15;;;10.60;;
8458;SDS011;4266;48.816;9.154;2023-02-28T12:26:50;11.82;;;10.73;;
8458;SDS011;4266;48.816;9.154;2023-02-28T12:29:22;12.00;;;10.88;;
8458;SDS011;4266;48.816;9.154;2023-02-28T12:31:49;15.95;;;10.63;;
8458;SDS011;4266;48.816;9.154;2023-02-28T12:34:20;11.15;;;10.25;;
8458;SDS011;4266;48.816;9.154;2023-02-28T12:36:45;10.93;;;9.82;;
8458;SDS011;4266;48.816;9.154;2023-02-28T12:39:13;11.68;;;10.68;;
8458;SDS011;4266;48.816;9.154;2023-02-28T12:44:23;11.12;;;10.13;;
8458;SDS011;4266;48.816;9.154;2023-02-28T12:46:52;11.98;;;11.05;;
8458;SDS011;4266;48.816;9.154;2023-02-28T12:49:19;12.07;;;10.55;;
8458;SDS011;4266;48.816;9.154;2023-02-28T12:51:43;11.18;;;10.25;;
8458;SDS011;4266;48.816;9.154;2023-02-28T12:57:06;10.88;;;9.93;;
8458;SDS011;4266;48.816;9.154;2023-02-28T13:04:45;10.88;;;9.85;;
8458;SDS011;4266;48.816;9.154;2023-02-28T13:07:52;11.52;;;10.38;;
8458;SDS011;4266;48.816;9.154;2023-02-28T13:10:13;11.80;;;10.35;;
8458;SDS011;4266;48.816;9.154;2023-02-28T13:12:47;10.48;;;9.57;;
8458;SDS011;4266;48.816;9.154;2023-02-28T13:15:07;10.73;;;9.73;;
8458;SDS011;4266;48.816;9.154;2023-02-28T13:17:32;12.27;;;11.07;;
8458;SDS011;4266;48.816;9.154;2023-02-28T13:19:58;12.43;;;10.40;;
8458;SDS011;4266;48.816;9.154;2023-02-28T13:22:41;10.80;;;9.90;;
8458;SDS011;4266;48.816;9.154;2023-02-28T13:27:45;11.77;;;10.63;;
8458;SDS011;4266;48.816;9.154;2023-02-28T13:32:54;10.70;;;9.90;;
8458;SDS011;4266;48.816;9.154;2023-02-28T13:35:14;11.40;;;10.45;;
8458;SDS011;4266;48.816;9.154;2023-02-28T13:37:41;11.50;;;10.50;;
8458;SDS011;4266;48.816;9.154;2023-02-28T13:42:51;11.90;;;10.83;;
8458;SDS011;4266;48.816;9.154;2023-02-28T13:45:21;11.23;;;10.23;;
8458;SDS011;4266;48.816;9.154;2023-02-28T13:47:54;10.40;;;9.50;;
8458;SDS011;4266;48.816;9.154;2023-02-28T13:50:23;10.60;;;9.70;;
8458;SDS011;4266;48.816;9.154;2023-02-28T13:52:57;11.33;;;10.20;;
8458;SDS011;4266;48.816;9.154;2023-02-28T13:55:24;12.13;;;9.93;;
8458;SDS011;4266;48.816;9.154;2023-02-28T14:00:34;13.80;;;10.03;;
8458;SDS011;4266;48.816;9.154;2023-02-28T14:03:22;11.67;;;10.53;;
8458;SDS011;4266;48.816;9.154;2023-02-28T14:05:47;11.17;;;10.27;;
8458;SDS011;4266;48.816;9.154;2023-02-28T14:08:16;11.20;;;10.13;;
8458;SDS011;4266;48.816;9.154;2023-02-28T14:10:42;10.33;;;9.47;;
8458;SDS011;4266;48.816;9.154;2023-02-28T14:13:36;12.30;;;10.07;;
8458;SDS011;4266;48.816;9.154;2023-02-28T14:15:43;11.67;;;10.57;;
8458;SDS011;4266;48.816;9.154;2023-02-28T14:18:14;11.73;;;10.53;;
8458;SDS011;4266;48.816;9.154;2023-02-28T14:20:36;11.50;;;10.40;;
8458;SDS011;4266;48.816;9.154;2023-02-28T14:23:38;10.97;;;9.97;;
8458;SDS011;4266;48.816;9.154;2023-02-28T14:25:47;11.53;;;9.90;;
8458;SDS011;4266;48.816;9.154;2023-02-28T14:31:25;11.70;;;10.60;;
8458;SDS011;4266;48.816;9.154;2023-02-28T14:33:59;11.40;;;10.40;;
8458;SDS011;4266;48.816;9.154;2023-02-28T14:36:25;11.77;;;10.07;;
8458;SDS011;4266;48.816;9.154;2023-02-28T14:38:54;12.93;;;11.73;;
8458;SDS011;4266;48.816;9.154;2023-02-28T14:41:21;13.07;;;11.47;;
8458;SDS011;4266;48.816;9.154;2023-02-28T14:44:01;11.73;;;10.63;;
8458;SDS011;4266;48.816;9.154;2023-02-28T14:46:30;11.30;;;10.27;;
8458;SDS011;4266;48.816;9.154;2023-02-28T14:48:54;12.13;;;10.17;;
8458;SDS011;4266;48.816;9.154;2023-02-28T14:51:21;11.27;;;10.10;;
8458;SDS011;4266;48.816;9.154;2023-02-28T14:53:47;14.07;;;10.50;;
8458;SDS011;4266;48.816;9.154;2023-02-28T14:56:19;11.90;;;10.63;;
8458;SDS011;4266;48.816;9.154;2023-02-28T14:58:42;13.73;;;11.37;;
8458;SDS011;4266;48.816;9.154;2023-02-28T15:01:10;11.73;;;10.40;;
8458;SDS011;4266;48.816;9.154;2023-02-28T15:03:36;11.87;;;10.70;;
8458;SDS011;4266;48.816;9.154;2023-02-28T15:06:02;12.33;;;11.20;;
8458;SDS011;4266;48.816;9.154;2023-02-28T15:08:28;11.93;;;10.73;;
8458;SDS011;4266;48.816;9.154;2023-02-28T15:11:11;11.10;;;10.07;;
8458;SDS011;4266;48.816;9.154;2023-02-28T15:13:44;14.70;;;10.87;;
8458;SDS011;4266;48.816;9.154;2023-02-28T15:16:11;11.50;;;10.30;;
8458;SDS011;4266;48.816;9.154;2023-02-28T15:18:46;12.07;;;10.87;;
8458;SDS011;4266;48.816;9.154;2023-02-28T15:21:15;13.30;;;11.47;;
8458;SDS011;4266;48.816;9.154;2023-02-28T15:23:42;12.57;;;11.37;;
8458;SDS011;4266;48.816;9.154;2023-02-28T15:26:06;11.73;;;10.53;;
8458;SDS011;4266;48.816;9.154;2023-02-28T15:28:32;12.17;;;10.97;;
8458;SDS011;4266;48.816;9.154;2023-02-28T15:31:00;15.30;;;11.53;;
8458;SDS011;4266;48.816;9.154;2023-02-28T15:33:25;12.20;;;10.90;;
8458;SDS011;4266;48.816;9.154;2023-02-28T15:35:51;11.67;;;10.53;;
8458;SDS011;4266;48.816;9.154;2023-02-28T15:38:18;12.83;;;10.73;;
8458;SDS011;4266;48.816;9.154;2023-02-28T15:40:45;12.10;;;10.87;;
8458;SDS011;4266;48.816;9.154;2023-02-28T15:43:13;14.50;;;10.97;;
8458;SDS011;4266;48.816;9.154;2023-02-28T15:45:44;13.60;;;12.13;;
8458;SDS011;4266;48.816;9.154;2023-02-28T15:48:14;13.27;;;11.00;;
8458;SDS011;4266;48.816;9.154;2023-02-28T15:50:38;14.60;;;10.63;;